
Distance (Route):
Temperature : -28.1°C
Humidity : 8.4%
Pressure : 381.6hPa| Receiver | Frames | First received | Last received |
|---|---|---|---|
| 9A1FER-3 | 129 | 2026-09-03 23:58:28 | 2026-09-04 01:01:39 |
| 9A1FER-10 | 102 | 2026-09-03 23:49:54 | 2026-09-04 01:00:25 |
| LZ4TU-5 | 64 | 2026-09-03 23:45:20 | 2026-09-04 01:06:53 |
| GYPAP8-17 | 12 | 2026-09-03 23:36:10 | 2026-09-04 01:03:49 |
| S52SK | 8 | 2026-09-04 00:00:01 | 2026-09-04 00:55:23 |
| Receiver | Date | Latitude | Longitude | Direction | Speed | Altitude | Climb | Temperature | Humidity | Pressure | Voltage | Killtimer | Uptime | BKT | XDATA |
|---|---|---|---|---|---|---|---|---|---|---|---|---|---|---|---|
| LZ4TU-5 | 2026-09-04 01:06:53 | 45.50175 | 20.57358 | 171° | 119km/h | 7820m | -16.9m/s | -28.1°C | 8.4% | 381.6hPa | 2.5V | 00:00:00 | 00:00:00 | 00:00:00 | |
| LZ4TU-5 | 2026-09-04 01:06:49 | 45.50296 | 20.57329 | 172° | 126km/h | 7890m | -16.5m/s | -28.3°C | 11.2% | 378.0hPa | 2.5V | 00:00:00 | 00:00:00 | 00:00:00 | |
| LZ4TU-5 | 2026-09-04 01:06:41 | 45.50558 | 20.57272 | 173° | 135km/h | 8022m | -17.3m/s | -28.9°C | 0% | 371.1hPa | 2.5V | 00:00:00 | 00:00:00 | 00:00:00 | |
| LZ4TU-5 | 2026-09-04 01:04:26 | 45.55748 | 20.56514 | 182° | 188km/h | 10392m | -18.2m/s | -47.6°C | 65.1% | 263.1hPa | 2.5V | 00:00:00 | 00:00:00 | 00:00:00 | |
| GYPAP8-17 | 2026-09-04 01:03:49 | 45.57570 | 20.56639 | 185° | 199km/h | 11106m | -19.6m/s | -53.7°C | 45.1% | 236.1hPa | 2.5V | 08:19:00 | 00:00:00 | 00:00:00 | |
| LZ4TU-5 | 2026-09-04 01:02:39 | 45.60260 | 20.56490 | 164° | 97km/h | 12517m | -21.5m/s | -52.7°C | 2.0% | 189.2hPa | 2.5V | 00:00:00 | 00:00:00 | 00:00:00 | |
| LZ4TU-5 | 2026-09-04 01:02:34 | 45.60374 | 20.56440 | 163° | 91km/h | 12622m | -21.4m/s | -52.2°C | 1.9% | 186.1hPa | 2.5V | 00:00:00 | 00:00:00 | 00:00:00 | |
| 9A1FER-3 | 2026-09-04 01:01:39 | 45.61334 | 20.55697 | 151° | 62km/h | 13867m | -23.6m/s | -53.5°C | 4.7% | 153.6hPa | 2.5V | 00:00:00 | 02:12:14 | 00:00:00 | |
| GYPAP8-17 | 2026-09-04 01:01:18 | 45.61611 | 20.55446 | 143° | 49km/h | 14340m | -23.8m/s | -52.4°C | 1.7% | 142.8hPa | 2.5V | 00:00:00 | 00:00:00 | 00:00:00 | |
| LZ4TU-5 | 2026-09-04 01:01:09 | 45.61698 | 20.55332 | 133° | 55km/h | 14553m | -25.0m/s | -53.7°C | 1.9% | 138.1hPa | 2.5V | 08:22:00 | 00:00:00 | 00:00:00 | |
| LZ4TU-5 | 2026-09-04 01:01:05 | 45.61735 | 20.55274 | 132° | 53km/h | 14653m | -24.9m/s | -53.3°C | 1.8% | 136.0hPa | 2.5V | 00:00:00 | 00:00:00 | 00:00:00 | |
| 9A1FER-10 | 2026-09-04 01:00:25 | 45.62014 | 20.54779 | 128° | 49km/h | 15680m | -25.7m/s | -55.7°C | 4.8% | 115.8hPa | 2.5V | 00:00:00 | 02:11:00 | 00:00:00 | |
| 9A1FER-10 | 2026-09-04 01:00:10 | 45.62132 | 20.54573 | 127° | 49km/h | 16074m | -26.3m/s | -56.7°C | 5.2% | 108.9hPa | 2.5V | 00:00:00 | 02:10:45 | 00:00:00 | |
| 9A1FER-10 | 2026-09-04 00:59:55 | 45.62240 | 20.54362 | 128° | 35km/h | 16478m | -27.7m/s | -55.5°C | 4.5% | 102.2hPa | 2.5V | 00:00:00 | 02:10:30 | 00:00:00 | |
| 9A1FER-10 | 2026-09-04 00:59:40 | 45.62341 | 20.54247 | 144° | 18km/h | 16904m | -29.3m/s | -53.8°C | 3.8% | 95.7hPa | 2.5V | 00:00:00 | 02:10:15 | 00:00:00 | |
| 9A1FER-10 | 2026-09-04 00:59:25 | 45.62385 | 20.54172 | 133° | 31km/h | 17337m | -28.3m/s | -56.8°C | 4.9% | 89.4hPa | 2.5V | 00:00:00 | 02:10:00 | 00:00:00 | |
| LZ4TU-5 | 2026-09-04 00:59:14 | 45.62452 | 20.54094 | 139° | 29km/h | 17661m | -29.5m/s | -56.4°C | 1.3% | 85.1hPa | 2.5V | 00:00:00 | 00:00:00 | 00:00:00 | |
| 9A1FER-10 | 2026-09-04 00:59:10 | 45.62471 | 20.54061 | 118° | 35km/h | 17779m | -29.9m/s | -56.6°C | 4.9% | 83.4hPa | 2.5V | 00:00:00 | 02:09:45 | 00:00:00 | |
| LZ4TU-5 | 2026-09-04 00:59:08 | 45.62474 | 20.54051 | 111° | 29km/h | 17809m | -30.4m/s | -56.3°C | 1.3% | 83.1hPa | 2.5V | 00:00:00 | 00:00:00 | 00:00:00 | |
| 9A1FER-3 | 2026-09-04 00:58:57 | 45.62500 | 20.53903 | 109° | 18km/h | 18174m | -31.1m/s | -55.9°C | 4.7% | 78.4hPa | 2.5V | 00:00:00 | 02:09:32 | 00:00:00 | |
| 9A1FER-10 | 2026-09-04 00:58:55 | 45.62506 | 20.53879 | 111° | 33km/h | 18236m | -31.0m/s | -56.1°C | 4.8% | 77.7hPa | 2.5V | 00:00:00 | 02:09:30 | 00:00:00 | |
| 9A1FER-10 | 2026-09-04 00:58:40 | 45.62532 | 20.53707 | 111° | 26km/h | 18711m | -32.0m/s | -55.1°C | 4.5% | 72.1hPa | 2.5V | 00:00:00 | 02:09:15 | 00:00:00 | |
| 9A1FER-10 | 2026-09-04 00:58:25 | 45.62576 | 20.53588 | 111° | 27km/h | 19209m | -33.8m/s | -54.7°C | 4.3% | 66.8hPa | 2.5V | 08:24:00 | 02:09:00 | 00:00:00 | |
| 9A1FER-10 | 2026-09-04 00:58:01 | 45.62668 | 20.53473 | 188° | 11km/h | 20032m | -35.2m/s | -54.7°C | 4.2% | 58.7hPa | 2.6V | 00:00:00 | 02:08:36 | 00:00:00 | |
| 9A1FER-3 | 2026-09-04 00:57:52 | 45.62671 | 20.53460 | 67° | 11km/h | 20355m | -35.5m/s | -55.8°C | 4.6% | 55.8hPa | 2.6V | 00:00:00 | 02:08:27 | 00:00:00 | |
| LZ4TU-5 | 2026-09-04 00:57:45 | 45.62666 | 20.53432 | 84° | 11km/h | 20567m | -35.9m/s | -55.3°C | 1.1% | 54.0hPa | 2.6V | 08:25:00 | 00:00:00 | 00:00:00 | |
| 9A1FER-10 | 2026-09-04 00:57:42 | 45.62666 | 20.53419 | 116° | 9km/h | 20708m | -34.6m/s | -55.2°C | 4.5% | 52.8hPa | 2.6V | 00:00:00 | 02:08:17 | 00:00:00 | |
| LZ4TU-5 | 2026-09-04 00:57:40 | 45.62667 | 20.53415 | 113° | 11km/h | 20743m | -34.8m/s | -55.2°C | 1.1% | 52.6hPa | 2.6V | 00:00:00 | 00:00:00 | 00:00:00 | |
| 9A1FER-3 | 2026-09-04 00:57:37 | 45.62670 | 20.53401 | 113° | 9km/h | 20882m | -34.2m/s | -55.4°C | 4.5% | 51.4hPa | 2.6V | 00:00:00 | 02:08:12 | 00:00:00 | |
| 9A1FER-3 | 2026-09-04 00:57:22 | 45.62679 | 20.53348 | 98° | 15km/h | 21402m | -35.5m/s | -54.7°C | 4.3% | 47.4hPa | 2.6V | 00:00:00 | 02:07:57 | 00:00:00 | |
| 9A1FER-10 | 2026-09-04 00:57:12 | 45.62691 | 20.53291 | 142° | 7km/h | 21766m | -37.1m/s | -54.9°C | 4.5% | 44.7hPa | 2.6V | 00:00:00 | 02:07:47 | 00:00:00 | |
| 9A1FER-3 | 2026-09-04 00:57:07 | 45.62700 | 20.53283 | 166° | 11km/h | 21953m | -37.1m/s | -54.9°C | 4.5% | 43.5hPa | 2.6V | 08:26:00 | 02:07:42 | 00:00:00 | |
| 9A1FER-10 | 2026-09-04 00:56:57 | 45.62721 | 20.53279 | 177° | 18km/h | 22328m | -38.3m/s | -53.8°C | 4.2% | 41.0hPa | 2.5V | 00:00:00 | 02:07:32 | 00:00:00 | |
| 9A1FER-3 | 2026-09-04 00:56:52 | 45.62742 | 20.53282 | 199° | 15km/h | 22520m | -38.9m/s | -53.3°C | 4.0% | 39.8hPa | 2.5V | 00:00:00 | 02:07:27 | 00:00:00 | |
| 9A1FER-10 | 2026-09-04 00:56:42 | 45.62773 | 20.53327 | 269° | 5km/h | 22913m | -41.6m/s | -53.9°C | 4.4% | 37.4hPa | 2.5V | 00:00:00 | 02:07:17 | 00:00:00 | |
| 9A1FER-3 | 2026-09-04 00:56:37 | 45.62770 | 20.53338 | 340° | 5km/h | 23125m | -42.5m/s | -53.9°C | 4.5% | 36.3hPa | 2.5V | 00:00:00 | 02:07:12 | 00:00:00 | |
| 9A1FER-10 | 2026-09-04 00:56:27 | 45.62773 | 20.53333 | 193° | 7km/h | 23553m | -42.1m/s | -52.9°C | 4.2% | 33.9hPa | 2.5V | 00:00:00 | 02:07:02 | 00:00:00 | |
| 9A1FER-3 | 2026-09-04 00:56:22 | 45.62783 | 20.53335 | 193° | 9km/h | 23766m | -42.0m/s | -52.5°C | 4.2% | 32.8hPa | 2.5V | 00:00:00 | 02:06:57 | 00:00:00 | |
| 9A1FER-10 | 2026-09-04 00:56:12 | 45.62805 | 20.53338 | 190° | 11km/h | 24205m | -43.7m/s | -51.3°C | 3.9% | 30.7hPa | 2.5V | 00:00:00 | 02:06:47 | 00:00:00 | |
| 9A1FER-3 | 2026-09-04 00:56:07 | 45.62816 | 20.53346 | 234° | 11km/h | 24419m | -42.7m/s | -50.5°C | 3.6% | 29.7hPa | 2.5V | 00:00:00 | 02:06:42 | 00:00:00 | |
| 9A1FER-10 | 2026-09-04 00:55:57 | 45.62825 | 20.53389 | 261° | 13km/h | 24824m | -39.4m/s | -50.0°C | 3.6% | 27.8hPa | 2.5V | 08:27:00 | 02:06:32 | 00:00:00 | |
| LZ4TU-5 | 2026-09-04 00:55:56 | 45.62825 | 20.53389 | 261° | 9km/h | 24824m | -39.5m/s | -50.1°C | 0.8% | 27.9hPa | 2.6V | 00:00:00 | 00:00:00 | 00:00:00 | |
| 9A1FER-3 | 2026-09-04 00:55:52 | 45.62828 | 20.53404 | 255° | 13km/h | 25021m | -38.8m/s | -49.9°C | 3.6% | 27.0hPa | 2.6V | 00:00:00 | 02:06:27 | 00:00:00 | |
| 9A1FER-10 | 2026-09-04 00:55:42 | 45.62812 | 20.53447 | 317° | 9km/h | 25419m | -40.4m/s | -49.2°C | 3.6% | 25.3hPa | 2.6V | 00:00:00 | 02:06:17 | 00:00:00 | |
| 9A1FER-3 | 2026-09-04 00:55:37 | 45.62802 | 20.53455 | 354° | 9km/h | 25619m | -40.6m/s | -48.2°C | 3.3% | 24.6hPa | 2.6V | 00:00:00 | 02:06:12 | 00:00:00 | |
| GYPAP8-17 | 2026-09-04 00:55:31 | 45.62795 | 20.53463 | 311° | 11km/h | 25835m | -46.0m/s | -48.1°C | 0.7% | 23.9hPa | 2.6V | 00:00:00 | 00:00:00 | 00:00:00 | |
| 9A1FER-10 | 2026-09-04 00:55:28 | 45.62783 | 20.53477 | 335° | 7km/h | 26067m | -46.9m/s | -47.7°C | 3.2% | 23.0hPa | 2.6V | 00:00:00 | 02:06:02 | 00:00:00 | |
| S52SK | 2026-09-04 00:55:23 | 45.62777 | 20.53477 | 20° | 9km/h | 26207m | -47.7m/s | -47.5°C | 0% | 0hPa | 2.6V | 00:00:00 | 00:00:00 | 00:00:00 | |
| 9A1FER-3 | 2026-09-04 00:55:22 | 45.62773 | 20.53475 | 26° | 11km/h | 26301m | -47.2m/s | -47.4°C | 3.2% | 22.2hPa | 2.6V | 00:00:00 | 02:05:57 | 00:00:00 | |
| S52SK | 2026-09-04 00:55:18 | 45.62770 | 20.53472 | 48° | 2km/h | 26438m | -45.0m/s | -47.0°C | 0% | 0hPa | 2.6V | 00:00:00 | 00:00:00 | 00:00:00 | |
| 9A1FER-10 | 2026-09-04 00:55:12 | 45.62756 | 20.53469 | 15° | 24km/h | 26766m | -45.7m/s | -46.3°C | 3.0% | 20.7hPa | 2.6V | 00:00:00 | 02:05:47 | 00:00:00 | |
| 9A1FER-3 | 2026-09-04 00:55:07 | 45.62734 | 20.53449 | 42° | 24km/h | 27006m | -49.5m/s | -46.2°C | 3.0% | 19.9hPa | 2.6V | 00:00:00 | 02:05:42 | 00:00:00 | |
| 9A1FER-10 | 2026-09-04 00:54:57 | 45.62723 | 20.53367 | 114° | 20km/h | 27495m | -50.3m/s | -45.8°C | 3.1% | 18.5hPa | 2.6V | 00:00:00 | 02:05:32 | 00:00:00 | |
| 9A1FER-3 | 2026-09-04 00:54:52 | 45.62730 | 20.53329 | 100° | 18km/h | 27748m | -49.4m/s | -45.2°C | 3.0% | 17.8hPa | 2.6V | 08:28:00 | 02:05:27 | 00:00:00 | |
| 9A1FER-10 | 2026-09-04 00:54:42 | 45.62753 | 20.53268 | 103° | 16km/h | 28260m | -53.7m/s | -43.7°C | 2.6% | 16.5hPa | 2.6V | 00:00:00 | 02:05:17 | 00:00:00 | |
| 9A1FER-3 | 2026-09-04 00:54:37 | 45.62758 | 20.53247 | 106° | 11km/h | 28517m | -48.8m/s | -43.3°C | 2.6% | 15.9hPa | 2.6V | 00:00:00 | 02:05:12 | 00:00:00 | |
| 9A1FER-3 | 2026-09-04 00:54:22 | 45.62779 | 20.53194 | 90° | 5km/h | 29246m | -49.7m/s | -42.5°C | 2.5% | 14.2hPa | 2.6V | 00:00:00 | 02:04:57 | 00:00:00 | |
| 9A1FER-3 | 2026-09-04 00:54:07 | 45.62765 | 20.53176 | 7° | 16km/h | 29951m | -48.6m/s | -42.6°C | 2.5% | 12.8hPa | 2.6V | 00:00:00 | 02:04:42 | 00:00:00 | |
| 9A1FER-3 | 2026-09-04 00:53:52 | 45.62738 | 20.53111 | 105° | 13km/h | 30675m | -45.2m/s | -43.8°C | 2.8% | 11.4hPa | 2.6V | 00:00:00 | 02:04:27 | 00:00:00 | |
| 9A1FER-3 | 2026-09-04 00:53:37 | 45.62715 | 20.53080 | 53° | 11km/h | 31332m | -32.7m/s | -42.1°C | 2.6% | 10.3hPa | 2.6V | 00:00:00 | 02:04:12 | 00:00:00 | |
| 9A1FER-3 | 2026-09-04 00:53:22 | 45.62685 | 20.53042 | 42° | 22km/h | 31837m | -37.7m/s | -39.9°C | 2.1% | 9.5hPa | 2.6V | 00:00:00 | 02:03:57 | 00:00:00 | |
| 9A1FER-3 | 2026-09-04 00:53:07 | 45.62635 | 20.52964 | 264° | 15km/h | 32376m | -41.2m/s | -40.9°C | 2.2% | 8.8hPa | 2.6V | 00:00:00 | 02:03:42 | 00:00:00 | |
| LZ4TU-5 | 2026-09-04 00:53:02 | 45.62634 | 20.52984 | 289° | 15km/h | 32529m | -32.1m/s | -41.4°C | 0.5% | 8.6hPa | 2.6V | 00:00:00 | 00:00:00 | 00:00:00 | |
| LZ4TU-5 | 2026-09-04 00:52:58 | 45.62622 | 20.52989 | 13° | 15km/h | 32661m | -21.8m/s | -41.6°C | 0.4% | 8.4hPa | 2.6V | 00:00:00 | 00:00:00 | 00:00:00 | |
| 9A1FER-3 | 2026-09-04 00:52:52 | 45.62608 | 20.53016 | 296° | 16km/h | 32762m | 4.4m/s | -41.9°C | 2.4% | 8.2hPa | 2.6V | 00:00:00 | 02:03:27 | 00:00:00 | |
| 9A1FER-3 | 2026-09-04 00:52:37 | 45.62593 | 20.53101 | 261° | 16km/h | 32657m | 6.9m/s | -41.6°C | 2.4% | 8.4hPa | 2.6V | 00:00:00 | 02:03:12 | 08:30:00 | |
| 9A1FER-3 | 2026-09-04 00:52:22 | 45.62597 | 20.53165 | 182° | 9km/h | 32549m | 7.2m/s | -41.6°C | 2.4% | 8.5hPa | 2.6V | 00:00:00 | 02:02:57 | 00:00:00 | |
| 9A1FER-3 | 2026-09-04 00:52:07 | 45.62593 | 20.53150 | 87° | 18km/h | 32438m | 8.3m/s | -41.4°C | 2.4% | 8.7hPa | 2.6V | 00:00:00 | 02:02:42 | 00:00:00 | |
| 9A1FER-3 | 2026-09-04 00:51:52 | 45.62558 | 20.53064 | 79° | 29km/h | 32327m | 6.8m/s | -41.3°C | 2.4% | 8.8hPa | 2.6V | 00:00:00 | 02:02:27 | 00:00:00 | |
| 9A1FER-3 | 2026-09-04 00:51:37 | 45.62489 | 20.52945 | 57° | 27km/h | 32216m | 6.4m/s | -40.9°C | 2.3% | 9.0hPa | 2.6V | 00:00:00 | 02:02:12 | 00:00:00 | |
| 9A1FER-3 | 2026-09-04 00:51:22 | 45.62423 | 20.52853 | 72° | 20km/h | 32108m | 7.0m/s | -40.7°C | 2.3% | 9.1hPa | 2.6V | 00:00:00 | 02:01:57 | 00:00:00 | |
| 9A1FER-3 | 2026-09-04 00:51:07 | 45.62394 | 20.52777 | 81° | 20km/h | 32000m | 7.8m/s | -40.3°C | 2.3% | 9.2hPa | 2.6V | 00:00:00 | 02:01:42 | 00:00:00 | |
| 9A1FER-3 | 2026-09-04 00:50:52 | 45.62360 | 20.52703 | 50° | 26km/h | 31893m | 8.3m/s | -40.4°C | 2.3% | 9.4hPa | 2.5V | 00:00:00 | 02:01:27 | 00:00:00 | |
| 9A1FER-3 | 2026-09-04 00:50:37 | 45.62286 | 20.52657 | 41° | 16km/h | 31788m | 6.9m/s | -39.9°C | 2.1% | 9.6hPa | 2.5V | 00:00:00 | 02:01:12 | 00:00:00 | |
| 9A1FER-3 | 2026-09-04 00:50:21 | 45.62238 | 20.52638 | 356° | 11km/h | 31677m | 8.1m/s | -41.3°C | 2.3% | 9.7hPa | 2.5V | 00:00:00 | 02:00:56 | 08:30:00 | |
| 9A1FER-3 | 2026-09-04 00:50:06 | 45.62213 | 20.52624 | 25° | 13km/h | 31575m | 5.2m/s | -41.8°C | 2.4% | 9.9hPa | 2.5V | 00:00:00 | 02:00:41 | 00:00:00 | |
| 9A1FER-3 | 2026-09-04 00:49:50 | 45.62195 | 20.52584 | 101° | 18km/h | 31468m | 6.5m/s | -41.9°C | 2.4% | 10.0hPa | 2.5V | 00:00:00 | 02:00:25 | 00:00:00 | |
| 9A1FER-3 | 2026-09-04 00:49:35 | 45.62160 | 20.52532 | 32° | 22km/h | 31368m | 5.6m/s | -42.3°C | 2.4% | 10.2hPa | 2.5V | 00:00:00 | 02:00:10 | 00:00:00 | |
| 9A1FER-3 | 2026-09-04 00:49:20 | 45.62078 | 20.52535 | 360° | 20km/h | 31269m | 5.2m/s | -42.7°C | 2.5% | 10.3hPa | 2.5V | 00:00:00 | 01:59:55 | 00:00:00 | |
| 9A1FER-3 | 2026-09-04 00:49:05 | 45.62010 | 20.52588 | 331° | 16km/h | 31173m | 4.9m/s | -42.9°C | 2.6% | 10.5hPa | 2.5V | 00:00:00 | 01:59:40 | 00:00:00 | |
| LZ4TU-5 | 2026-09-04 00:49:02 | 45.62004 | 20.52597 | 294° | 18km/h | 31161m | 7.8m/s | -42.9°C | 0.5% | 10.6hPa | 2.5V | 00:00:00 | 00:00:00 | 00:00:00 | |
| LZ4TU-5 | 2026-09-04 00:48:59 | 45.62001 | 20.52629 | 285° | 18km/h | 31137m | 6.7m/s | -42.8°C | 0.5% | 10.6hPa | 2.5V | 00:00:00 | 00:00:00 | 00:00:00 | |
| 9A1FER-3 | 2026-09-04 00:48:50 | 45.61976 | 20.52646 | 183° | 13km/h | 31076m | 6.7m/s | -42.6°C | 2.5% | 10.6hPa | 2.5V | 00:00:00 | 01:59:25 | 00:00:00 | |
| 9A1FER-3 | 2026-09-04 00:48:35 | 45.61991 | 20.52672 | 178° | 22km/h | 30981m | 8.2m/s | -43.2°C | 2.5% | 10.8hPa | 2.6V | 00:00:00 | 01:59:10 | 00:00:00 | |
| 9A1FER-3 | 2026-09-04 00:48:20 | 45.62048 | 20.52609 | 150° | 26km/h | 30882m | 6.9m/s | -43.9°C | 2.6% | 11.0hPa | 2.6V | 00:00:00 | 01:58:55 | 00:00:00 | |
| 9A1FER-10 | 2026-09-04 00:48:14 | 45.62086 | 20.52587 | 132° | 20km/h | 30845m | 5.1m/s | -44.3°C | 2.7% | 11.0hPa | 2.6V | 00:00:00 | 01:58:49 | 00:00:00 | |
| 9A1FER-3 | 2026-09-04 00:48:05 | 45.62072 | 20.52519 | 128° | 27km/h | 30786m | 8.2m/s | -44.4°C | 2.7% | 11.1hPa | 2.6V | 00:00:00 | 01:58:40 | 08:30:00 | |
| 9A1FER-10 | 2026-09-04 00:47:56 | 45.62105 | 20.52472 | 74° | 26km/h | 30730m | 6.8m/s | -44.6°C | 2.8% | 11.2hPa | 2.5V | 00:00:00 | 01:58:31 | 00:00:00 | |
| 9A1FER-3 | 2026-09-04 00:47:50 | 45.62077 | 20.52408 | 73° | 24km/h | 30690m | 7.4m/s | -44.4°C | 2.8% | 11.3hPa | 2.5V | 00:00:00 | 01:58:25 | 00:00:00 | |
| S52SK | 2026-09-04 00:47:39 | 45.62080 | 20.52342 | 59° | 31km/h | 30623m | 7.3m/s | -44.1°C | 0% | 0hPa | 2.5V | 00:00:00 | 00:00:00 | 00:00:00 | |
| 9A1FER-3 | 2026-09-04 00:47:35 | 45.62056 | 20.52298 | 70° | 18km/h | 30590m | 6.5m/s | -44.0°C | 2.7% | 11.4hPa | 2.5V | 00:00:00 | 01:58:10 | 00:00:00 | |
| S52SK | 2026-09-04 00:47:34 | 45.62056 | 20.52298 | 70° | 26km/h | 30590m | 6.5m/s | -44.1°C | 0% | 0hPa | 2.5V | 00:00:00 | 00:00:00 | 00:00:00 | |
| 9A1FER-3 | 2026-09-04 00:47:20 | 45.62015 | 20.52223 | 44° | 16km/h | 30492m | 5.7m/s | -43.6°C | 2.7% | 11.6hPa | 2.5V | 00:00:00 | 01:57:55 | 00:00:00 | |
| 9A1FER-3 | 2026-09-04 00:47:05 | 45.61958 | 20.52195 | 1° | 16km/h | 30388m | 7.5m/s | -42.9°C | 2.7% | 11.8hPa | 2.6V | 00:00:00 | 01:57:40 | 00:00:00 | |
| 9A1FER-3 | 2026-09-04 00:46:50 | 45.61899 | 20.52200 | 343° | 16km/h | 30285m | 7.7m/s | -42.0°C | 2.5% | 12.0hPa | 2.6V | 00:00:00 | 01:57:25 | 00:00:00 | |
| 9A1FER-3 | 2026-09-04 00:46:35 | 45.61843 | 20.52227 | 319° | 15km/h | 30182m | 7.3m/s | -42.2°C | 2.5% | 12.2hPa | 2.6V | 00:00:00 | 01:57:10 | 00:00:00 | |
| 9A1FER-3 | 2026-09-04 00:46:20 | 45.61807 | 20.52281 | 262° | 15km/h | 30076m | 8.0m/s | -42.3°C | 2.5% | 12.4hPa | 2.6V | 00:00:00 | 01:56:55 | 00:00:00 | |
| 9A1FER-10 | 2026-09-04 00:45:57 | 45.61750 | 20.52287 | 20° | 13km/h | 29918m | 5.5m/s | -42.9°C | 2.6% | 12.7hPa | 2.6V | 00:00:00 | 01:56:32 | 00:00:00 | |
| 9A1FER-3 | 2026-09-04 00:45:50 | 45.61753 | 20.52260 | 83° | 11km/h | 29873m | 6.7m/s | -42.7°C | 2.6% | 12.8hPa | 2.6V | 00:00:00 | 01:56:25 | 08:30:00 | |
| 9A1FER-10 | 2026-09-04 00:45:38 | 45.61721 | 20.52256 | 6° | 7km/h | 29787m | 7.0m/s | -42.1°C | 2.5% | 12.9hPa | 2.6V | 00:00:00 | 01:56:13 | 08:30:00 | |
| 9A1FER-3 | 2026-09-04 00:45:35 | 45.61716 | 20.52258 | 321° | 7km/h | 29767m | 8.0m/s | -42.0°C | 2.5% | 13.0hPa | 2.5V | 00:00:00 | 01:56:10 | 00:00:00 | |
| 9A1FER-10 | 2026-09-04 00:45:23 | 45.61701 | 20.52270 | 244° | 7km/h | 29683m | 7.0m/s | -42.0°C | 2.5% | 13.1hPa | 2.5V | 00:00:00 | 01:55:58 | 00:00:00 | |
| 9A1FER-3 | 2026-09-04 00:45:20 | 45.61701 | 20.52276 | 275° | 7km/h | 29663m | 8.5m/s | -41.9°C | 2.5% | 13.2hPa | 2.5V | 00:00:00 | 01:55:55 | 00:00:00 | |
| 9A1FER-10 | 2026-09-04 00:45:08 | 45.61712 | 20.52291 | 172° | 11km/h | 29579m | 5.7m/s | -41.5°C | 2.4% | 13.3hPa | 2.5V | 00:00:00 | 01:55:43 | 00:00:00 | |
| 9A1FER-3 | 2026-09-04 00:45:05 | 45.61719 | 20.52297 | 229° | 11km/h | 29557m | 6.3m/s | -41.4°C | 2.4% | 13.4hPa | 2.5V | 00:00:00 | 01:55:40 | 00:00:00 | |
| 9A1FER-10 | 2026-09-04 00:44:50 | 45.61734 | 20.52289 | 297° | 11km/h | 29451m | 7.3m/s | -41.9°C | 2.4% | 13.6hPa | 2.6V | 00:00:00 | 01:55:25 | 00:00:00 | |
| 9A1FER-3 | 2026-09-04 00:44:35 | 45.61758 | 20.52251 | 2° | 16km/h | 29347m | 7.3m/s | -42.3°C | 2.5% | 13.8hPa | 2.6V | 00:00:00 | 01:55:10 | 00:00:00 | |
| 9A1FER-3 | 2026-09-04 00:44:20 | 45.61745 | 20.52201 | 354° | 16km/h | 29248m | 5.0m/s | -42.6°C | 2.6% | 14.0hPa | 2.6V | 00:00:00 | 01:54:55 | 00:00:00 | |
| 9A1FER-3 | 2026-09-04 00:44:05 | 45.61749 | 20.52158 | 15° | 16km/h | 29149m | 4.7m/s | -42.4°C | 2.4% | 14.3hPa | 2.6V | 00:00:00 | 01:54:40 | 00:00:00 | |
| 9A1FER-3 | 2026-09-04 00:43:50 | 45.61775 | 20.52102 | 87° | 16km/h | 29052m | 6.4m/s | -43.1°C | 2.5% | 14.4hPa | 2.6V | 00:00:00 | 01:54:25 | 00:00:00 | |
| 9A1FER-3 | 2026-09-04 00:43:35 | 45.61803 | 20.52060 | 356° | 13km/h | 28954m | 5.3m/s | -43.7°C | 2.7% | 14.7hPa | 2.6V | 00:00:00 | 01:54:10 | 08:30:00 | |
| 9A1FER-10 | 2026-09-04 00:43:32 | 45.61800 | 20.52056 | 99° | 16km/h | 28936m | 7.3m/s | -43.8°C | 2.7% | 14.7hPa | 2.6V | 00:00:00 | 01:54:07 | 00:00:00 | |
| 9A1FER-3 | 2026-09-04 00:43:20 | 45.61824 | 20.52008 | 130° | 31km/h | 28860m | 6.1m/s | -43.9°C | 2.6% | 14.9hPa | 2.6V | 00:00:00 | 01:53:55 | 00:00:00 | |
| 9A1FER-10 | 2026-09-04 00:43:17 | 45.61840 | 20.51982 | 131° | 31km/h | 28839m | 5.2m/s | -44.1°C | 2.7% | 14.9hPa | 2.6V | 00:00:00 | 01:53:52 | 08:30:00 | |
| 9A1FER-3 | 2026-09-04 00:43:05 | 45.61880 | 20.51872 | 106° | 22km/h | 28765m | 7.7m/s | -44.1°C | 0% | 15.1hPa | 2.6V | 00:00:00 | 01:53:40 | 00:00:00 | |
| 9A1FER-10 | 2026-09-04 00:42:59 | 45.61893 | 20.51829 | 118° | 16km/h | 28726m | 6.6m/s | -44.1°C | 2.7% | 15.2hPa | 2.6V | 00:00:00 | 01:53:34 | 00:00:00 | |
| 9A1FER-3 | 2026-09-04 00:42:50 | 45.61907 | 20.51765 | 108° | 15km/h | 28666m | 5.5m/s | -44.3°C | 2.7% | 15.3hPa | 2.6V | 00:00:00 | 01:53:25 | 00:00:00 | |
| 9A1FER-3 | 2026-09-04 00:42:35 | 45.61903 | 20.51693 | 113° | 15km/h | 28567m | 8.0m/s | -44.6°C | 2.7% | 15.5hPa | 2.5V | 00:00:00 | 01:53:10 | 00:00:00 | |
| 9A1FER-3 | 2026-09-04 00:42:20 | 45.61915 | 20.51622 | 163° | 15km/h | 28470m | 5.4m/s | -45.0°C | 2.8% | 15.8hPa | 2.5V | 00:00:00 | 01:52:55 | 00:00:00 | |
| LZ4TU-5 | 2026-09-04 00:42:16 | 45.61921 | 20.51616 | 106° | 7km/h | 28449m | 5.9m/s | -45.1°C | 0.6% | 15.9hPa | 2.5V | 00:00:00 | 00:00:00 | 00:00:00 | |
| 9A1FER-10 | 2026-09-04 00:42:14 | 45.61922 | 20.51607 | 95° | 18km/h | 28428m | 6.3m/s | -45.2°C | 2.9% | 15.9hPa | 2.5V | 00:00:00 | 01:52:49 | 00:00:00 | |
| 9A1FER-3 | 2026-09-04 00:42:05 | 45.61941 | 20.51568 | 163° | 20km/h | 28369m | 7.0m/s | -45.0°C | 2.9% | 16.0hPa | 2.5V | 00:00:00 | 01:52:40 | 00:00:00 | |
| 9A1FER-10 | 2026-09-04 00:41:51 | 45.61986 | 20.51501 | 177° | 24km/h | 28277m | 7.5m/s | -44.9°C | 2.8% | 16.2hPa | 2.6V | 00:00:00 | 01:52:26 | 00:00:00 | |
| 9A1FER-3 | 2026-09-04 00:41:50 | 45.61990 | 20.51499 | 158° | 24km/h | 28270m | 6.5m/s | -44.9°C | 2.8% | 16.3hPa | 2.5V | 00:00:00 | 01:52:25 | 00:00:00 | |
| 9A1FER-10 | 2026-09-04 00:41:36 | 45.62038 | 20.51402 | 121° | 27km/h | 28175m | 6.6m/s | -45.1°C | 2.9% | 16.5hPa | 2.5V | 00:00:00 | 01:52:11 | 00:00:00 | |
| 9A1FER-3 | 2026-09-04 00:41:35 | 45.62042 | 20.51394 | 124° | 29km/h | 28169m | 6.6m/s | -45.1°C | 2.8% | 16.5hPa | 2.5V | 00:00:00 | 01:52:10 | 00:00:00 | |
| 9A1FER-10 | 2026-09-04 00:41:21 | 45.62079 | 20.51264 | 120° | 29km/h | 28073m | 8.0m/s | -45.2°C | 2.8% | 16.7hPa | 2.5V | 00:00:00 | 01:51:56 | 00:00:00 | |
| 9A1FER-3 | 2026-09-04 00:41:20 | 45.62083 | 20.51255 | 126° | 29km/h | 28066m | 6.7m/s | -45.2°C | 2.8% | 16.8hPa | 2.5V | 00:00:00 | 01:51:55 | 08:30:00 | |
| 9A1FER-3 | 2026-09-04 00:41:05 | 45.62119 | 20.51114 | 132° | 22km/h | 27965m | 6.1m/s | -45.5°C | 2.8% | 17.0hPa | 2.6V | 00:00:00 | 01:51:40 | 00:00:00 | |
| 9A1FER-10 | 2026-09-04 00:40:50 | 45.62163 | 20.51022 | 140° | 26km/h | 27861m | 8.1m/s | -46.2°C | 3.0% | 17.3hPa | 2.6V | 00:00:00 | 01:51:25 | 00:00:00 | |
| 9A1FER-3 | 2026-09-04 00:40:35 | 45.62214 | 20.50908 | 117° | 27km/h | 27760m | 6.9m/s | -46.5°C | 3.0% | 17.6hPa | 2.6V | 00:00:00 | 01:51:10 | 00:00:00 | |
| 9A1FER-3 | 2026-09-04 00:40:20 | 45.62262 | 20.50779 | 116° | 29km/h | 27657m | 6.2m/s | -46.6°C | 3.0% | 17.8hPa | 2.6V | 00:00:00 | 01:50:55 | 00:00:00 | |
| 9A1FER-10 | 2026-09-04 00:40:18 | 45.62270 | 20.50759 | 123° | 29km/h | 27642m | 7.2m/s | -46.6°C | 3.0% | 17.9hPa | 2.6V | 00:00:00 | 01:50:53 | 08:30:00 | |
| LZ4TU-5 | 2026-09-04 00:40:17 | 45.62273 | 20.50752 | 123° | 22km/h | 27636m | 5.4m/s | -46.6°C | 0.7% | 18.0hPa | 2.5V | 00:00:00 | 00:00:00 | 00:00:00 | |
| LZ4TU-5 | 2026-09-04 00:40:12 | 45.62278 | 20.50720 | 96° | 27km/h | 27610m | 5.9m/s | -46.8°C | 0.7% | 18.0hPa | 2.5V | 00:00:00 | 00:00:00 | 00:00:00 | |
| 9A1FER-3 | 2026-09-04 00:40:05 | 45.62297 | 20.50634 | 97° | 31km/h | 27556m | 6.2m/s | -46.7°C | 3.0% | 18.1hPa | 2.5V | 00:00:00 | 01:50:40 | 00:00:00 | |
| 9A1FER-10 | 2026-09-04 00:40:03 | 45.62299 | 20.50617 | 102° | 29km/h | 27542m | 6.3m/s | -46.7°C | 3.0% | 18.2hPa | 2.5V | 00:00:00 | 01:50:38 | 00:00:00 | |
| 9A1FER-3 | 2026-09-04 00:39:50 | 45.62308 | 20.50481 | 99° | 26km/h | 27451m | 6.6m/s | -47.3°C | 3.1% | 18.4hPa | 2.5V | 00:00:00 | 01:50:25 | 00:00:00 | |
| 9A1FER-10 | 2026-09-04 00:39:46 | 45.62305 | 20.50457 | 78° | 26km/h | 27424m | 5.4m/s | -47.6°C | 3.2% | 18.5hPa | 2.5V | 00:00:00 | 01:50:21 | 00:00:00 | |
| 9A1FER-3 | 2026-09-04 00:39:35 | 45.62298 | 20.50345 | 81° | 26km/h | 27348m | 7.9m/s | -47.6°C | 3.2% | 18.7hPa | 2.5V | 00:00:00 | 01:50:10 | 00:00:00 | |
| 9A1FER-10 | 2026-09-04 00:39:28 | 45.62287 | 20.50282 | 69° | 20km/h | 27300m | 7.6m/s | -47.5°C | 3.2% | 18.8hPa | 2.5V | 00:00:00 | 01:50:03 | 00:00:00 | |
| 9A1FER-3 | 2026-09-04 00:39:20 | 45.62262 | 20.50220 | 43° | 27km/h | 27246m | 5.9m/s | -47.4°C | 3.1% | 19.0hPa | 2.6V | 00:00:00 | 01:49:55 | 00:00:00 | |
| 9A1FER-3 | 2026-09-04 00:39:05 | 45.62205 | 20.50109 | 22° | 24km/h | 27149m | 7.5m/s | -47.4°C | 3.2% | 19.3hPa | 2.6V | 00:00:00 | 01:49:40 | 08:30:00 | |
| 9A1FER-3 | 2026-09-04 00:38:50 | 45.62128 | 20.50059 | 7° | 22km/h | 27054m | 7.4m/s | -47.0°C | 3.1% | 19.6hPa | 2.6V | 00:00:00 | 01:49:25 | 00:00:00 | |
| GYPAP8-17 | 2026-09-04 00:38:40 | 45.62089 | 20.50032 | 342° | 13km/h | 26995m | 8.2m/s | -47.2°C | 0.7% | 19.8hPa | 2.6V | 00:00:00 | 00:00:00 | 00:00:00 | |
| LZ4TU-5 | 2026-09-04 00:38:24 | 45.62040 | 20.50040 | 326° | 9km/h | 26895m | 5.6m/s | -47.1°C | 0.7% | 20.1hPa | 2.6V | 00:00:00 | 00:00:00 | 00:00:00 | |
| 9A1FER-3 | 2026-09-04 00:37:25 | 45.61996 | 20.50078 | 116° | 15km/h | 26521m | 6.6m/s | -47.9°C | 3.2% | 21.2hPa | 2.6V | 00:00:00 | 01:48:00 | 00:00:00 | |
| GYPAP8-17 | 2026-09-04 00:37:16 | 45.61992 | 20.50060 | 53° | 5km/h | 26467m | 5.7m/s | -48.1°C | 0.8% | 21.4hPa | 2.6V | 00:00:00 | 00:00:00 | 00:00:00 | |
| 9A1FER-3 | 2026-09-04 00:36:18 | 45.61828 | 20.50137 | 325° | 16km/h | 26102m | 4.9m/s | -48.9°C | 3.4% | 22.6hPa | 2.6V | 00:00:00 | 01:46:53 | 00:00:00 | |
| 9A1FER-3 | 2026-09-04 00:36:03 | 45.61788 | 20.50185 | 301° | 16km/h | 26008m | 6.2m/s | -49.0°C | 3.4% | 23.0hPa | 2.6V | 00:00:00 | 01:46:38 | 00:00:00 | |
| 9A1FER-3 | 2026-09-04 00:35:48 | 45.61743 | 20.50235 | 354° | 9km/h | 25915m | 5.9m/s | -49.0°C | 3.4% | 23.3hPa | 2.6V | 00:00:00 | 01:46:23 | 00:00:00 | |
| 9A1FER-3 | 2026-09-04 00:35:33 | 45.61723 | 20.50254 | 337° | 13km/h | 25820m | 5.8m/s | -48.8°C | 3.4% | 23.6hPa | 2.6V | 00:00:00 | 01:46:08 | 00:00:00 | |
| 9A1FER-3 | 2026-09-04 00:35:18 | 45.61689 | 20.50265 | 14° | 15km/h | 25724m | 5.7m/s | -49.0°C | 3.4% | 24.0hPa | 2.6V | 00:00:00 | 01:45:53 | 00:00:00 | |
| 9A1FER-3 | 2026-09-04 00:35:03 | 45.61637 | 20.50273 | 310° | 18km/h | 25627m | 6.3m/s | -48.8°C | 3.3% | 24.3hPa | 2.6V | 00:00:00 | 01:45:38 | 08:30:00 | |
| 9A1FER-3 | 2026-09-04 00:34:48 | 45.61584 | 20.50331 | 295° | 22km/h | 25536m | 5.6m/s | -49.6°C | 3.4% | 24.7hPa | 2.6V | 00:00:00 | 01:45:23 | 00:00:00 | |
| LZ4TU-5 | 2026-09-04 00:34:39 | 45.61555 | 20.50378 | 325° | 26km/h | 25484m | 6.0m/s | -49.9°C | 0% | 24.9hPa | 2.6V | 00:00:00 | 00:00:00 | 00:00:00 | |
| 9A1FER-3 | 2026-09-04 00:34:33 | 45.61531 | 20.50420 | 304° | 20km/h | 25439m | 5.5m/s | -50.1°C | 3.4% | 25.1hPa | 2.6V | 00:00:00 | 01:45:08 | 00:00:00 | |
| 9A1FER-3 | 2026-09-04 00:34:18 | 45.61501 | 20.50519 | 271° | 15km/h | 25343m | 5.5m/s | -50.9°C | 3.7% | 25.4hPa | 2.6V | 00:00:00 | 01:44:53 | 00:00:00 | |
| 9A1FER-3 | 2026-09-04 00:34:03 | 45.61489 | 20.50588 | 233° | 7km/h | 25249m | 6.3m/s | -50.7°C | 3.7% | 25.8hPa | 2.5V | 00:00:00 | 01:44:38 | 00:00:00 | |
| 9A1FER-3 | 2026-09-04 00:33:48 | 45.61500 | 20.50620 | 217° | 7km/h | 25156m | 7.2m/s | -50.5°C | 3.6% | 26.2hPa | 2.5V | 00:00:00 | 01:44:23 | 00:00:00 | |
| 9A1FER-3 | 2026-09-04 00:33:33 | 45.61513 | 20.50633 | 327° | 7km/h | 25067m | 5.0m/s | -50.6°C | 3.6% | 26.5hPa | 2.5V | 00:00:00 | 01:44:08 | 00:00:00 | |
| 9A1FER-3 | 2026-09-04 00:33:18 | 45.61515 | 20.50659 | 243° | 9km/h | 24976m | 4.3m/s | -50.6°C | 3.6% | 26.9hPa | 2.5V | 00:00:00 | 01:43:53 | 00:00:00 | |
| 9A1FER-3 | 2026-09-04 00:33:03 | 45.61525 | 20.50703 | 254° | 16km/h | 24884m | 7.1m/s | -50.6°C | 3.7% | 27.3hPa | 2.5V | 00:00:00 | 01:43:38 | 00:00:00 | |
| LZ4TU-5 | 2026-09-04 00:32:56 | 45.61531 | 20.50758 | 247° | 11km/h | 24841m | 5.9m/s | -50.5°C | 0.9% | 27.5hPa | 2.5V | 00:00:00 | 00:00:00 | 00:00:00 | |
| LZ4TU-5 | 2026-09-04 00:32:51 | 45.61536 | 20.50762 | 194° | 9km/h | 24817m | 5.7m/s | -50.4°C | 0.9% | 27.6hPa | 2.5V | 00:00:00 | 00:00:00 | 00:00:00 | |
| 9A1FER-3 | 2026-09-04 00:32:48 | 45.61549 | 20.50781 | 244° | 16km/h | 24794m | 6.7m/s | -50.2°C | 3.5% | 27.7hPa | 2.5V | 00:00:00 | 01:43:23 | 08:30:00 | |
| 9A1FER-3 | 2026-09-04 00:32:33 | 45.61584 | 20.50842 | 230° | 15km/h | 24703m | 6.7m/s | -50.3°C | 3.5% | 28.0hPa | 2.5V | 00:00:00 | 01:43:08 | 00:00:00 | |
| 9A1FER-3 | 2026-09-04 00:32:18 | 45.61633 | 20.50870 | 222° | 15km/h | 24607m | 7.4m/s | -50.5°C | 3.6% | 28.5hPa | 2.5V | 00:00:00 | 01:42:53 | 00:00:00 | |
| 9A1FER-3 | 2026-09-04 00:32:03 | 45.61680 | 20.50907 | 227° | 15km/h | 24514m | 7.2m/s | -50.8°C | 3.6% | 28.9hPa | 2.5V | 00:00:00 | 01:42:38 | 00:00:00 | |
| 9A1FER-3 | 2026-09-04 00:31:48 | 45.61729 | 20.50949 | 211° | 13km/h | 24421m | 6.3m/s | -51.3°C | 3.7% | 29.3hPa | 2.5V | 00:00:00 | 01:42:23 | 00:00:00 | |
| 9A1FER-3 | 2026-09-04 00:31:33 | 45.61767 | 20.50923 | 150° | 13km/h | 24329m | 5.6m/s | -51.4°C | 3.7% | 29.7hPa | 2.5V | 00:00:00 | 01:42:08 | 00:00:00 | |
| 9A1FER-3 | 2026-09-04 00:31:18 | 45.61790 | 20.50864 | 126° | 13km/h | 24237m | 7.0m/s | -52.0°C | 3.8% | 30.2hPa | 2.5V | 00:00:00 | 01:41:53 | 00:00:00 | |
| LZ4TU-5 | 2026-09-04 00:31:07 | 45.61806 | 20.50829 | 169° | 16km/h | 24175m | 6.4m/s | -52.1°C | 0.9% | 30.5hPa | 2.7V | 00:00:00 | 00:00:00 | 00:00:00 | |
| 9A1FER-3 | 2026-09-04 00:31:03 | 45.61823 | 20.50827 | 173° | 9km/h | 24146m | 6.6m/s | -52.1°C | 3.8% | 30.6hPa | 2.7V | 00:00:00 | 01:41:38 | 00:00:00 | |
| 9A1FER-3 | 2026-09-04 00:30:48 | 45.61853 | 20.50819 | 175° | 11km/h | 24056m | 5.8m/s | -52.2°C | 3.8% | 31.0hPa | 2.7V | 00:00:00 | 01:41:23 | 00:00:00 | |
| 9A1FER-3 | 2026-09-04 00:30:34 | 45.61891 | 20.50819 | 167° | 11km/h | 23964m | 4.9m/s | -52.9°C | 4.0% | 31.5hPa | 2.7V | 00:00:00 | 01:41:08 | 08:30:00 | |
| 9A1FER-3 | 2026-09-04 00:30:18 | 45.61932 | 20.50805 | 134° | 9km/h | 23873m | 5.4m/s | -53.1°C | 4.0% | 31.9hPa | 2.5V | 00:00:00 | 01:40:53 | 00:00:00 | |
| 9A1FER-3 | 2026-09-04 00:29:33 | 45.61984 | 20.50783 | 145° | 5km/h | 23610m | 6.4m/s | -54.0°C | 4.3% | 33.3hPa | 2.5V | 00:00:00 | 01:40:08 | 00:00:00 | |
| 9A1FER-3 | 2026-09-04 00:29:18 | 45.61995 | 20.50767 | 127° | 11km/h | 23521m | 5.3m/s | -53.6°C | 4.0% | 33.7hPa | 2.5V | 00:00:00 | 01:39:53 | 00:00:00 | |
| LZ4TU-5 | 2026-09-04 00:29:07 | 45.61990 | 20.50738 | 76° | 11km/h | 23464m | 6.1m/s | -53.9°C | 1.0% | 34.1hPa | 2.5V | 00:00:00 | 00:00:00 | 00:00:00 | |
| 9A1FER-3 | 2026-09-04 00:29:03 | 45.61985 | 20.50716 | 66° | 16km/h | 23435m | 4.4m/s | -54.0°C | 4.2% | 34.2hPa | 2.5V | 00:00:00 | 01:39:38 | 00:00:00 | |
| 9A1FER-3 | 2026-09-04 00:28:48 | 45.61961 | 20.50635 | 26° | 20km/h | 23350m | 5.9m/s | -54.4°C | 4.3% | 34.6hPa | 2.7V | 00:00:00 | 01:39:23 | 00:00:00 | |
| 9A1FER-3 | 2026-09-04 00:28:09 | 45.61877 | 20.50764 | 279° | 26km/h | 23131m | 6.2m/s | -54.9°C | 4.4% | 35.8hPa | 2.7V | 00:00:00 | 01:38:44 | 00:00:00 | |
| 9A1FER-3 | 2026-09-04 00:27:54 | 45.61871 | 20.50899 | 270° | 20km/h | 23043m | 5.2m/s | -54.9°C | 4.4% | 36.3hPa | 2.7V | 00:00:00 | 01:38:29 | 08:30:00 | |
| 9A1FER-3 | 2026-09-04 00:27:39 | 45.61879 | 20.51003 | 252° | 22km/h | 22955m | 5.4m/s | -54.8°C | 4.5% | 36.8hPa | 2.7V | 00:00:00 | 01:38:14 | 00:00:00 | |
| 9A1FER-3 | 2026-09-04 00:27:24 | 45.61932 | 20.51086 | 246° | 22km/h | 22865m | 4.9m/s | -54.3°C | 4.3% | 37.4hPa | 2.7V | 00:00:00 | 01:37:59 | 00:00:00 | |
| LZ4TU-5 | 2026-09-04 00:27:21 | 45.61941 | 20.51108 | 229° | 20km/h | 22849m | 5.8m/s | -54.3°C | 1.1% | 37.5hPa | 2.7V | 00:00:00 | 00:00:00 | 00:00:00 | |
| 9A1FER-3 | 2026-09-04 00:27:09 | 45.61996 | 20.51153 | 213° | 20km/h | 22777m | 5.9m/s | -54.2°C | 4.2% | 37.9hPa | 2.7V | 00:00:00 | 01:37:44 | 00:00:00 | |
| 9A1FER-3 | 2026-09-04 00:26:54 | 45.62071 | 20.51175 | 180° | 18km/h | 22689m | 6.8m/s | -54.4°C | 4.4% | 38.4hPa | 2.6V | 00:00:00 | 01:37:29 | 00:00:00 | |
| 9A1FER-3 | 2026-09-04 00:26:39 | 45.62137 | 20.51158 | 182° | 18km/h | 22601m | 5.3m/s | -54.0°C | 4.2% | 38.9hPa | 2.6V | 00:00:00 | 01:37:14 | 00:00:00 | |
| 9A1FER-3 | 2026-09-04 00:26:24 | 45.62206 | 20.51148 | 211° | 15km/h | 22513m | 6.1m/s | -53.9°C | 4.1% | 39.5hPa | 2.6V | 00:00:00 | 01:36:59 | 00:00:00 | |
| 9A1FER-3 | 2026-09-04 00:26:09 | 45.62251 | 20.51121 | 120° | 9km/h | 22427m | 5.4m/s | -54.4°C | 4.3% | 40.0hPa | 2.6V | 00:00:00 | 01:36:44 | 00:00:00 | |
| 9A1FER-3 | 2026-09-04 00:25:54 | 45.62267 | 20.51091 | 213° | 5km/h | 22342m | 7.2m/s | -54.4°C | 4.3% | 40.5hPa | 2.6V | 00:00:00 | 01:36:29 | 00:00:00 | |
| 9A1FER-10 | 2026-09-04 00:25:40 | 45.62264 | 20.51103 | 263° | 9km/h | 22264m | 5.0m/s | -54.7°C | 4.4% | 41.0hPa | 2.6V | 00:00:00 | 01:36:15 | 00:00:00 | |
| 9A1FER-3 | 2026-09-04 00:25:39 | 45.62264 | 20.51106 | 283° | 9km/h | 22259m | 5.1m/s | -54.7°C | 4.4% | 41.1hPa | 2.6V | 00:00:00 | 01:36:14 | 08:30:00 | |
| LZ4TU-5 | 2026-09-04 00:25:33 | 45.62260 | 20.51113 | 266° | 5km/h | 22223m | 6.7m/s | -54.7°C | 1.1% | 41.4hPa | 2.6V | 00:00:00 | 00:00:00 | 00:00:00 | |
| 9A1FER-3 | 2026-09-04 00:25:24 | 45.62279 | 20.51135 | 178° | 11km/h | 22170m | 6.4m/s | -54.5°C | 4.2% | 41.6hPa | 2.6V | 00:00:00 | 01:35:59 | 00:00:00 | |
| 9A1FER-10 | 2026-09-04 00:25:20 | 45.62283 | 20.51132 | 139° | 13km/h | 22146m | 4.8m/s | -54.5°C | 4.2% | 41.8hPa | 2.6V | 00:00:00 | 01:35:55 | 00:00:00 | |
| 9A1FER-3 | 2026-09-04 00:25:09 | 45.62318 | 20.51122 | 134° | 18km/h | 22082m | 5.2m/s | -54.8°C | 4.4% | 42.2hPa | 2.6V | 00:00:00 | 01:35:44 | 00:00:00 | |
| 9A1FER-3 | 2026-09-04 00:24:54 | 45.62368 | 20.51056 | 107° | 38km/h | 21993m | 6.6m/s | -55.1°C | 4.5% | 42.8hPa | 2.6V | 00:00:00 | 01:35:29 | 00:00:00 | |
| LZ4TU-5 | 2026-09-04 00:23:48 | 45.62465 | 20.50795 | 102° | 18km/h | 21625m | 6.1m/s | -55.3°C | 1.1% | 45.4hPa | 2.5V | 00:00:00 | 00:00:00 | 00:00:00 | |
| 9A1FER-10 | 2026-09-04 00:22:06 | 45.62445 | 20.50450 | 91° | 5km/h | 21050m | 3.7m/s | -55.4°C | 4.6% | 49.7hPa | 2.5V | 00:00:00 | 01:32:41 | 00:00:00 | |
| LZ4TU-5 | 2026-09-04 00:21:53 | 45.62435 | 20.50414 | 91° | 5km/h | 20983m | 6.1m/s | -55.1°C | 1.2% | 50.2hPa | 2.7V | 00:00:00 | 00:00:00 | 00:00:00 | |
| 9A1FER-10 | 2026-09-04 00:21:46 | 45.62431 | 20.50404 | 40° | 5km/h | 20938m | 6.1m/s | -55.1°C | 4.5% | 50.5hPa | 2.7V | 00:00:00 | 01:32:21 | 00:00:00 | |
| 9A1FER-10 | 2026-09-04 00:21:31 | 45.62435 | 20.50400 | 60° | 7km/h | 20853m | 6.1m/s | -54.8°C | 4.4% | 51.2hPa | 2.7V | 00:00:00 | 01:32:06 | 00:00:00 | |
| 9A1FER-10 | 2026-09-04 00:21:16 | 45.62451 | 20.50383 | 88° | 5km/h | 20768m | 6.1m/s | -54.4°C | 4.3% | 51.9hPa | 2.7V | 00:00:00 | 01:31:51 | 08:30:00 | |
| 9A1FER-10 | 2026-09-04 00:21:01 | 45.62464 | 20.50367 | 226° | 7km/h | 20686m | 5.9m/s | -53.9°C | 4.2% | 52.5hPa | 2.6V | 00:00:00 | 01:31:36 | 00:00:00 | |
| 9A1FER-10 | 2026-09-04 00:20:46 | 45.62477 | 20.50380 | 8° | 9km/h | 20608m | 3.8m/s | -54.3°C | 4.2% | 53.2hPa | 2.6V | 00:00:00 | 01:31:21 | 00:00:00 | |
| 9A1FER-10 | 2026-09-04 00:20:31 | 45.62480 | 20.50345 | 72° | 13km/h | 20527m | 5.6m/s | -54.7°C | 4.3% | 53.9hPa | 2.6V | 00:00:00 | 01:31:06 | 00:00:00 | |
| LZ4TU-5 | 2026-09-04 00:19:59 | 45.62434 | 20.50236 | 45° | 15km/h | 20358m | 5.3m/s | -54.9°C | 1.1% | 55.4hPa | 2.7V | 00:00:00 | 00:00:00 | 00:00:00 | |
| LZ4TU-5 | 2026-09-04 00:18:11 | 45.62740 | 20.50042 | 130° | 26km/h | 19776m | 5.2m/s | -55.4°C | 1.2% | 60.6hPa | 2.7V | 00:00:00 | 00:00:00 | 00:00:00 | |
| GYPAP8-17 | 2026-09-04 00:18:02 | 45.62767 | 20.49972 | 121° | 24km/h | 19730m | 5.1m/s | -55.3°C | 1.2% | 61.1hPa | 2.7V | 00:00:00 | 00:00:00 | 00:00:00 | |
| LZ4TU-5 | 2026-09-04 00:16:21 | 45.63045 | 20.49164 | 155° | 13km/h | 19179m | 5.9m/s | -55.9°C | 1.3% | 66.6hPa | 2.7V | 00:00:00 | 00:00:00 | 00:00:00 | |
| LZ4TU-5 | 2026-09-04 00:14:31 | 45.63319 | 20.48101 | 88° | 37km/h | 18590m | 4.1m/s | -55.3°C | 1.2% | 73.0hPa | 2.7V | 00:00:00 | 00:00:00 | 00:00:00 | |
| GYPAP8-17 | 2026-09-04 00:13:49 | 45.63382 | 20.47704 | 101° | 31km/h | 18372m | 6.1m/s | -55.8°C | 1.2% | 75.6hPa | 2.7V | 00:00:00 | 00:00:00 | 00:00:00 | |
| LZ4TU-5 | 2026-09-04 00:12:42 | 45.63627 | 20.46884 | 101° | 27km/h | 18025m | 3.9m/s | -57.4°C | 1.5% | 79.8hPa | 2.7V | 00:00:00 | 00:00:00 | 00:00:00 | |
| LZ4TU-5 | 2026-09-04 00:10:52 | 45.64179 | 20.46044 | 147° | 37km/h | 17441m | 6.9m/s | -56.8°C | 1.4% | 87.5hPa | 2.7V | 00:00:00 | 00:00:00 | 00:00:00 | |
| LZ4TU-5 | 2026-09-04 00:10:48 | 45.64209 | 20.46012 | 140° | 40km/h | 17418m | 6.0m/s | -57.0°C | 1.4% | 87.8hPa | 2.7V | 00:00:00 | 00:00:00 | 00:00:00 | |
| 9A1FER-10 | 2026-09-04 00:10:35 | 45.64281 | 20.45893 | 129° | 24km/h | 17337m | 4.8m/s | -57.5°C | 5.1% | 88.9hPa | 2.7V | 00:00:00 | 01:21:10 | 00:00:00 | |
| 9A1FER-10 | 2026-09-04 00:10:16 | 45.64340 | 20.45740 | 115° | 20km/h | 17232m | 4.4m/s | -56.8°C | 5.0% | 90.4hPa | 2.7V | 00:00:00 | 01:20:51 | 00:00:00 | |
| 9A1FER-10 | 2026-09-04 00:10:01 | 45.64374 | 20.45646 | 101° | 15km/h | 17152m | 6.1m/s | -56.3°C | 4.8% | 91.6hPa | 2.7V | 00:00:00 | 01:20:36 | 00:00:00 | |
| 9A1FER-10 | 2026-09-04 00:09:46 | 45.64401 | 20.45584 | 106° | 15km/h | 17062m | 3.3m/s | -55.5°C | 4.8% | 92.8hPa | 2.7V | 00:00:00 | 01:20:21 | 00:00:00 | |
| 9A1FER-10 | 2026-09-04 00:09:31 | 45.64426 | 20.45549 | 107° | 22km/h | 16958m | 7.0m/s | -54.5°C | 4.4% | 94.3hPa | 2.7V | 00:00:00 | 01:20:06 | 00:00:00 | |
| 9A1FER-10 | 2026-09-04 00:09:16 | 45.64496 | 20.45480 | 151° | 26km/h | 16868m | 5.5m/s | -53.7°C | 4.2% | 95.7hPa | 2.7V | 00:00:00 | 01:19:51 | 08:30:00 | |
| 9A1FER-10 | 2026-09-04 00:09:01 | 45.64576 | 20.45407 | 155° | 31km/h | 16792m | 4.1m/s | -53.3°C | 4.0% | 96.8hPa | 2.6V | 00:00:00 | 01:19:36 | 00:00:00 | |
| LZ4TU-5 | 2026-09-04 00:08:53 | 45.64619 | 20.45375 | 154° | 27km/h | 16759m | 6.0m/s | -54.0°C | 1.3% | 97.4hPa | 2.6V | 00:00:00 | 00:00:00 | 00:00:00 | |
| LZ4TU-5 | 2026-09-04 00:08:49 | 45.64646 | 20.45351 | 149° | 35km/h | 16741m | 4.2m/s | -54.2°C | 1.3% | 97.7hPa | 2.6V | 00:00:00 | 00:00:00 | 00:00:00 | |
| 9A1FER-10 | 2026-09-04 00:08:46 | 45.64676 | 20.45320 | 144° | 47km/h | 16724m | 4.3m/s | -54.5°C | 4.4% | 97.9hPa | 2.6V | 00:00:00 | 01:19:21 | 00:00:00 | |
| 9A1FER-10 | 2026-09-04 00:08:31 | 45.64818 | 20.45156 | 134° | 49km/h | 16663m | 4.9m/s | -54.5°C | 4.2% | 98.8hPa | 2.6V | 00:00:00 | 01:19:06 | 00:00:00 | |
| 9A1FER-10 | 2026-09-04 00:08:16 | 45.64952 | 20.44967 | 133° | 47km/h | 16604m | 4.1m/s | -56.6°C | 4.9% | 99.7hPa | 2.6V | 00:00:00 | 01:18:51 | 00:00:00 | |
| 9A1FER-10 | 2026-09-04 00:08:00 | 45.65079 | 20.44762 | 129° | 40km/h | 16541m | 4.5m/s | -56.6°C | 5.0% | 100.7hPa | 2.6V | 00:00:00 | 01:18:35 | 00:00:00 | |
| 9A1FER-3 | 2026-09-04 00:07:59 | 45.65085 | 20.44750 | 128° | 42km/h | 16536m | 4.4m/s | 0°C | 0% | 0hPa | 2.6V | 00:00:00 | 01:18:34 | 00:00:00 | |
| 9A1FER-10 | 2026-09-04 00:07:44 | 45.65190 | 20.44590 | 129° | 47km/h | 16472m | 3.4m/s | -56.6°C | 5.0% | 101.8hPa | 2.6V | 00:00:00 | 01:18:19 | 00:00:00 | |
| 9A1FER-10 | 2026-09-04 00:07:29 | 45.65303 | 20.44394 | 131° | 46km/h | 16406m | 4.1m/s | -56.8°C | 5.0% | 102.9hPa | 2.7V | 00:00:00 | 01:18:04 | 00:00:00 | |
| 9A1FER-10 | 2026-09-04 00:07:13 | 45.65414 | 20.44192 | 129° | 42km/h | 16335m | 5.4m/s | -57.0°C | 5.2% | 104.0hPa | 2.7V | 00:00:00 | 01:17:48 | 00:00:00 | |
| LZ4TU-5 | 2026-09-04 00:07:03 | 45.65471 | 20.44080 | 125° | 44km/h | 16296m | 4.4m/s | -57.0°C | 0% | 104.7hPa | 2.7V | 00:00:00 | 00:00:00 | 00:00:00 | |
| LZ4TU-5 | 2026-09-04 00:06:59 | 45.65493 | 20.44029 | 123° | 40km/h | 16276m | 4.6m/s | -57.0°C | 0% | 105.1hPa | 2.7V | 00:00:00 | 00:00:00 | 00:00:00 | |
| 9A1FER-10 | 2026-09-04 00:06:57 | 45.65508 | 20.43994 | 126° | 40km/h | 16261m | 5.2m/s | -57.1°C | 5.2% | 105.3hPa | 2.7V | 00:00:00 | 01:17:32 | 08:30:00 | |
| 9A1FER-10 | 2026-09-04 00:06:42 | 45.65587 | 20.43806 | 118° | 42km/h | 16185m | 5.5m/s | -57.6°C | 5.5% | 106.5hPa | 2.6V | 00:00:00 | 01:17:17 | 00:00:00 | |
| GYPAP8-17 | 2026-09-04 00:06:36 | 45.65617 | 20.43747 | 128° | 46km/h | 16160m | 5.6m/s | -57.6°C | 1.9% | 107.0hPa | 2.6V | 00:00:00 | 00:00:00 | 00:00:00 | |
| 9A1FER-10 | 2026-09-04 00:06:27 | 45.65675 | 20.43619 | 122° | 42km/h | 16106m | 5.5m/s | -57.3°C | 5.4% | 107.9hPa | 2.6V | 00:00:00 | 01:17:02 | 00:00:00 | |
| 9A1FER-10 | 2026-09-04 00:06:12 | 45.65771 | 20.43441 | 135° | 44km/h | 16025m | 6.3m/s | -57.2°C | 5.5% | 109.2hPa | 2.6V | 00:00:00 | 01:16:47 | 00:00:00 | |
| 9A1FER-10 | 2026-09-04 00:05:56 | 45.65893 | 20.43262 | 126° | 47km/h | 15940m | 5.4m/s | -56.8°C | 5.4% | 110.7hPa | 2.7V | 00:00:00 | 01:16:31 | 00:00:00 | |
| 9A1FER-10 | 2026-09-04 00:05:41 | 45.66010 | 20.43064 | 124° | 44km/h | 15859m | 5.1m/s | -56.7°C | 5.4% | 112.2hPa | 2.7V | 00:00:00 | 01:16:16 | 00:00:00 | |
| LZ4TU-5 | 2026-09-04 00:05:08 | 45.66193 | 20.42561 | 115° | 46km/h | 15685m | 4.9m/s | 0°C | 0% | 115.3hPa | 2.7V | 00:00:00 | 00:00:00 | 00:00:00 | |
| 9A1FER-10 | 2026-09-04 00:04:47 | 45.66319 | 20.42288 | 123° | 35km/h | 15569m | 5.4m/s | -55.3°C | 5.1% | 117.4hPa | 2.7V | 00:00:00 | 01:15:22 | 00:00:00 | |
| 9A1FER-10 | 2026-09-04 00:04:32 | 45.66397 | 20.42136 | 126° | 33km/h | 15487m | 4.2m/s | -55.2°C | 5.2% | 118.9hPa | 2.6V | 00:00:00 | 01:15:07 | 00:00:00 | |
| GYPAP8-17 | 2026-09-04 00:04:26 | 45.66426 | 20.42071 | 126° | 27km/h | 15453m | 5.7m/s | -55.1°C | 1.9% | 119.6hPa | 2.6V | 00:00:00 | 00:00:00 | 00:00:00 | |
| 9A1FER-10 | 2026-09-04 00:04:17 | 45.66470 | 20.41997 | 129° | 35km/h | 15410m | 4.7m/s | -54.9°C | 5.2% | 120.4hPa | 2.6V | 00:00:00 | 01:14:52 | 00:00:00 | |
| 9A1FER-10 | 2026-09-04 00:04:02 | 45.66552 | 20.41851 | 132° | 40km/h | 15334m | 3.7m/s | -54.7°C | 5.2% | 121.8hPa | 2.6V | 00:00:00 | 01:14:37 | 08:30:00 | |
| 9A1FER-10 | 2026-09-04 00:03:47 | 45.66661 | 20.41706 | 143° | 40km/h | 15260m | 4.3m/s | -54.5°C | 5.1% | 123.2hPa | 2.7V | 00:00:00 | 01:14:22 | 00:00:00 | |
| S52SK | 2026-09-04 00:03:37 | 45.66729 | 20.41628 | 139° | 44km/h | 15217m | 4.9m/s | -54.4°C | 0% | 0hPa | 2.7V | 00:00:00 | 00:00:00 | 00:00:00 | |
| 9A1FER-10 | 2026-09-04 00:03:33 | 45.66774 | 20.41560 | 127° | 46km/h | 15186m | 4.9m/s | -54.2°C | 5.0% | 124.6hPa | 2.7V | 00:00:00 | 01:14:07 | 00:00:00 | |
| LZ4TU-5 | 2026-09-04 00:03:21 | 45.66848 | 20.41416 | 124° | 42km/h | 15132m | 5.1m/s | 0°C | 0% | 125.7hPa | 2.7V | 00:00:00 | 00:00:00 | 00:00:00 | |
| LZ4TU-5 | 2026-09-04 00:03:17 | 45.66872 | 20.41363 | 124° | 46km/h | 15113m | 2.8m/s | 0°C | 0% | 126.1hPa | 2.7V | 00:00:00 | 00:00:00 | 00:00:00 | |
| 9A1FER-10 | 2026-09-04 00:02:21 | 45.67352 | 20.40281 | 128° | 53km/h | 14768m | 4.5m/s | -52.6°C | 4.6% | 133.0hPa | 2.7V | 00:00:00 | 01:12:37 | 00:00:00 | |
| S52SK | 2026-09-04 00:02:02 | 45.67478 | 20.40081 | 125° | 60km/h | 14708m | 3.6m/s | -53.0°C | 0% | 0hPa | 2.7V | 00:00:00 | 00:00:00 | 00:00:00 | |
| 9A1FER-10 | 2026-09-04 00:02:01 | 45.67486 | 20.40063 | 123° | 60km/h | 14704m | 4.6m/s | -53.0°C | 4.7% | 134.3hPa | 2.7V | 00:00:00 | 01:12:22 | 08:30:00 | |
| LZ4TU-5 | 2026-09-04 00:01:44 | 45.67585 | 20.39873 | 130° | 62km/h | 14658m | 3.6m/s | 0°C | 0% | 135.3hPa | 2.7V | 00:00:00 | 00:00:00 | 00:00:00 | |
| 9A1FER-10 | 2026-09-04 00:01:39 | 45.67625 | 20.39800 | 126° | 64km/h | 14641m | 4.0m/s | -53.7°C | 4.9% | 135.6hPa | 2.7V | 00:00:00 | 01:12:07 | 00:00:00 | |
| LZ4TU-5 | 2026-09-04 00:01:38 | 45.67634 | 20.39781 | 126° | 64km/h | 14636m | 4.0m/s | 0°C | 0% | 135.8hPa | 2.7V | 00:00:00 | 00:00:00 | 00:00:00 | |
| 9A1FER-10 | 2026-09-04 00:01:21 | 45.67780 | 20.39536 | 131° | 66km/h | 14575m | 4.0m/s | -53.8°C | 4.6% | 137.0hPa | 2.7V | 00:00:00 | 01:11:52 | 00:00:00 | |
| 9A1FER-10 | 2026-09-04 00:00:47 | 45.68122 | 20.39036 | 121° | 60km/h | 14441m | 3.4m/s | -54.2°C | 4.8% | 139.9hPa | 2.7V | 00:00:00 | 01:11:22 | 00:00:00 | |
| 9A1FER-3 | 2026-09-04 00:00:46 | 45.68129 | 20.39021 | 127° | 60km/h | 14437m | 4.4m/s | 0°C | 0% | 0hPa | 2.7V | 00:00:00 | 01:11:21 | 00:00:00 | |
| 9A1FER-10 | 2026-09-04 00:00:35 | 45.68308 | 20.38810 | 138° | 60km/h | 14357m | 5.3m/s | -53.6°C | 4.8% | 141.7hPa | 2.7V | 00:00:00 | 01:11:06 | 00:00:00 | |
| 9A1FER-3 | 2026-09-04 00:00:32 | 45.68355 | 20.38751 | 139° | 60km/h | 14338m | 4.3m/s | 0°C | 0% | 0hPa | 2.7V | 00:00:00 | 01:11:02 | 00:00:00 | |
| 9A1FER-10 | 2026-09-04 00:00:17 | 45.68482 | 20.38615 | 141° | 64km/h | 14287m | 4.0m/s | -53.0°C | 4.5% | 143.3hPa | 2.7V | 00:00:00 | 01:10:51 | 00:00:00 | |
| 9A1FER-3 | 2026-09-04 00:00:12 | 45.68539 | 20.38558 | 148° | 66km/h | 14268m | 4.7m/s | 0°C | 0% | 0hPa | 2.7V | 00:00:00 | 01:10:47 | 00:00:00 | |
| S52SK | 2026-09-04 00:00:07 | 45.68611 | 20.38491 | 149° | 58km/h | 14244m | 4.5m/s | -53.0°C | 0% | 0hPa | 2.7V | 00:00:00 | 00:00:00 | 00:00:00 | |
| S52SK | 2026-09-04 00:00:01 | 45.68673 | 20.38433 | 152° | 64km/h | 14221m | 6.5m/s | 0°C | 0% | 0hPa | 2.7V | 00:00:00 | 00:00:00 | 00:00:00 | |
| 9A1FER-10 | 2026-09-03 23:59:59 | 45.68718 | 20.38401 | 154° | 69km/h | 14205m | 5.6m/s | -53.4°C | 4.5% | 145.1hPa | 2.7V | 00:00:00 | 01:10:34 | 00:00:00 | |
| 9A1FER-3 | 2026-09-03 23:59:57 | 45.68750 | 20.38377 | 150° | 69km/h | 14195m | 4.5m/s | 0°C | 0% | 0hPa | 2.7V | 00:00:00 | 01:10:32 | 00:00:00 | |
| 9A1FER-10 | 2026-09-03 23:59:44 | 45.68943 | 20.38206 | 147° | 69km/h | 14133m | 3.7m/s | -54.1°C | 4.9% | 146.7hPa | 2.7V | 00:00:00 | 01:10:19 | 00:00:00 | |
| 9A1FER-3 | 2026-09-03 23:59:42 | 45.68969 | 20.38179 | 145° | 69km/h | 14124m | 5.2m/s | 0°C | 0% | 0hPa | 2.7V | 00:00:00 | 01:10:17 | 00:00:00 | |
| 9A1FER-10 | 2026-09-03 23:59:29 | 45.69168 | 20.38018 | 152° | 77km/h | 14060m | 5.7m/s | -53.6°C | 4.7% | 148.4hPa | 2.7V | 00:00:00 | 01:10:04 | 08:30:00 | |
| 9A1FER-10 | 2026-09-03 23:59:14 | 45.69421 | 20.37811 | 149° | 86km/h | 13983m | 5.2m/s | -54.7°C | 5.0% | 150.2hPa | 2.7V | 00:00:00 | 01:09:49 | 00:00:00 | |
| 9A1FER-3 | 2026-09-03 23:58:59 | 45.69705 | 20.37575 | 149° | 95km/h | 13913m | 4.2m/s | 0°C | 0% | 0hPa | 2.7V | 00:00:00 | 01:09:34 | 00:00:00 | |
| 9A1FER-3 | 2026-09-03 23:58:44 | 45.70015 | 20.37319 | 147° | 97km/h | 13842m | 4.0m/s | 0°C | 0% | 0hPa | 2.7V | 00:00:00 | 01:09:19 | 00:00:00 | |
| 9A1FER-10 | 2026-09-03 23:58:29 | 45.70325 | 20.37047 | 148° | 97km/h | 13769m | 5.9m/s | -55.3°C | 5.4% | 155.3hPa | 2.7V | 00:00:00 | 01:09:04 | 00:00:00 | |
| 9A1FER-3 | 2026-09-03 23:58:28 | 45.70345 | 20.37028 | 147° | 91km/h | 13763m | 4.7m/s | 0°C | 0% | 0hPa | 2.7V | 00:00:00 | 01:09:03 | 00:00:00 | |
| 9A1FER-10 | 2026-09-03 23:58:14 | 45.70631 | 20.36762 | 145° | 95km/h | 13696m | 4.8m/s | -55.0°C | 5.2% | 157.1hPa | 2.7V | 00:00:00 | 01:08:49 | 00:00:00 | |
| LZ4TU-5 | 2026-09-03 23:58:09 | 45.70707 | 20.36680 | 144° | 93km/h | 13678m | 4.7m/s | 0°C | 0% | 157.6hPa | 2.7V | 00:00:00 | 00:00:00 | 00:00:00 | |
| LZ4TU-5 | 2026-09-03 23:58:04 | 45.70802 | 20.36577 | 144° | 95km/h | 13655m | 5.7m/s | 0°C | 0% | 158.2hPa | 2.7V | 00:00:00 | 00:00:00 | 00:00:00 | |
| 9A1FER-10 | 2026-09-03 23:57:59 | 45.70919 | 20.36451 | 143° | 93km/h | 13627m | 4.0m/s | -54.8°C | 5.1% | 158.8hPa | 2.7V | 00:00:00 | 01:08:34 | 00:00:00 | |
| 9A1FER-10 | 2026-09-03 23:57:44 | 45.71201 | 20.36151 | 145° | 86km/h | 13551m | 4.3m/s | -54.6°C | 5.1% | 160.7hPa | 2.7V | 00:00:00 | 01:08:19 | 00:00:00 | |
| 9A1FER-10 | 2026-09-03 23:57:29 | 45.71457 | 20.35859 | 140° | 82km/h | 13477m | 3.1m/s | -54.1°C | 5.1% | 162.6hPa | 2.7V | 00:00:00 | 01:08:04 | 00:00:00 | |
| 9A1FER-10 | 2026-09-03 23:57:14 | 45.71699 | 20.35579 | 143° | 78km/h | 13406m | 5.9m/s | -53.6°C | 4.8% | 164.4hPa | 2.7V | 00:00:00 | 01:07:49 | 08:30:00 | |
| 9A1FER-10 | 2026-09-03 23:56:59 | 45.71928 | 20.35310 | 143° | 75km/h | 13336m | 4.4m/s | -53.7°C | 4.8% | 166.2hPa | 0V | 00:00:00 | 01:07:34 | 00:00:00 | |
| 9A1FER-10 | 2026-09-03 23:56:44 | 45.72146 | 20.35051 | 145° | 77km/h | 13266m | 4.3m/s | -53.9°C | 5.0% | 168.0hPa | 0V | 00:00:00 | 01:07:19 | 00:00:00 | |
| 9A1FER-10 | 2026-09-03 23:56:29 | 45.72374 | 20.34795 | 142° | 73km/h | 13199m | 5.4m/s | 0°C | 0% | 0hPa | 0V | 00:00:00 | 01:07:04 | 00:00:00 | |
| LZ4TU-5 | 2026-09-03 23:56:21 | 45.72499 | 20.34669 | 145° | 73km/h | 13162m | 3.9m/s | 0°C | 0% | 0hPa | 0V | 00:00:00 | 00:00:00 | 00:00:00 | |
| LZ4TU-5 | 2026-09-03 23:56:15 | 45.72573 | 20.34596 | 149° | 69km/h | 13138m | 4.2m/s | 0°C | 0% | 0hPa | 0V | 00:00:00 | 00:00:00 | 00:00:00 | |
| 9A1FER-10 | 2026-09-03 23:56:14 | 45.72605 | 20.34570 | 150° | 73km/h | 13128m | 3.4m/s | 0°C | 0% | 0hPa | 0V | 00:00:00 | 01:06:49 | 00:00:00 | |
| LZ4TU-5 | 2026-09-03 23:56:10 | 45.72651 | 20.34529 | 150° | 73km/h | 13115m | 3.1m/s | 0°C | 0% | 0hPa | 0V | 00:00:00 | 00:00:00 | 00:00:00 | |
| 9A1FER-10 | 2026-09-03 23:55:59 | 45.72845 | 20.34379 | 151° | 69km/h | 13060m | 3.8m/s | 0°C | 0% | 0hPa | 0V | 00:00:00 | 01:06:34 | 00:00:00 | |
| 9A1FER-10 | 2026-09-03 23:55:09 | 45.73623 | 20.33919 | 161° | 88km/h | 12831m | 5.2m/s | 0°C | 0% | 0hPa | 0V | 00:00:00 | 01:05:44 | 00:00:00 | |
| LZ4TU-5 | 2026-09-03 23:54:29 | 45.74307 | 20.33562 | 155° | 77km/h | 12649m | 3.9m/s | 0°C | 0% | 0hPa | 0V | 00:00:00 | 00:00:00 | 00:00:00 | |
| LZ4TU-5 | 2026-09-03 23:54:25 | 45.74397 | 20.33502 | 156° | 80km/h | 12625m | 4.6m/s | 0°C | 0% | 0hPa | 0V | 00:00:00 | 00:00:00 | 00:00:00 | |
| GYPAP8-17 | 2026-09-03 23:54:15 | 45.74568 | 20.33391 | 155° | 88km/h | 12582m | 4.7m/s | -51.8°C | 0% | 0hPa | 0V | 00:00:00 | 00:00:00 | 00:00:00 | |
| LZ4TU-5 | 2026-09-03 23:52:40 | 45.76934 | 20.32278 | 161° | 131km/h | 12098m | 4.4m/s | 0°C | 0% | 0hPa | 0V | 00:00:00 | 00:00:00 | 00:00:00 | |
| LZ4TU-5 | 2026-09-03 23:52:35 | 45.77090 | 20.32197 | 161° | 131km/h | 12075m | 3.3m/s | 0°C | 0% | 0hPa | 0V | 00:00:00 | 00:00:00 | 00:00:00 | |
| LZ4TU-5 | 2026-09-03 23:50:48 | 45.80624 | 20.30851 | 169° | 146km/h | 11613m | 4.5m/s | 0°C | 0% | 0hPa | 0V | 00:00:00 | 00:00:00 | 00:00:00 | |
| LZ4TU-5 | 2026-09-03 23:50:44 | 45.80777 | 20.30810 | 172° | 155km/h | 11595m | 6.1m/s | 0°C | 0% | 0hPa | 0V | 00:00:00 | 00:00:00 | 00:00:00 | |
| LZ4TU-5 | 2026-09-03 23:50:38 | 45.81007 | 20.30770 | 174° | 157km/h | 11566m | 6.1m/s | 0°C | 0% | 0hPa | 0V | 00:00:00 | 00:00:00 | 00:00:00 | |
| 9A1FER-10 | 2026-09-03 23:50:24 | 45.81603 | 20.30669 | 175° | 170km/h | 11483m | 3.9m/s | 0°C | 0% | 0hPa | 0V | 00:00:00 | 01:00:59 | 00:00:00 | |
| 9A1FER-10 | 2026-09-03 23:50:09 | 45.82247 | 20.30621 | 179° | 173km/h | 11418m | 3.5m/s | 0°C | 0% | 0hPa | 0V | 00:00:00 | 01:00:44 | 00:00:00 | |
| 9A1FER-10 | 2026-09-03 23:49:54 | 45.82906 | 20.30592 | 179° | 181km/h | 11350m | 5.2m/s | 0°C | 0% | 0hPa | 0V | 00:00:00 | 01:00:29 | 00:00:00 | |
| LZ4TU-5 | 2026-09-03 23:48:56 | 45.85562 | 20.30525 | 178° | 184km/h | 11091m | 3.3m/s | 0°C | 0% | 0hPa | 0V | 00:00:00 | 00:00:00 | 00:00:00 | |
| LZ4TU-5 | 2026-09-03 23:48:51 | 45.85799 | 20.30514 | 179° | 188km/h | 11068m | 5.4m/s | 0°C | 0% | 0hPa | 0V | 00:00:00 | 00:00:00 | 00:00:00 | |
| LZ4TU-5 | 2026-09-03 23:47:10 | 45.90763 | 20.30016 | 177° | 203km/h | 10585m | 5.4m/s | 0°C | 0% | 0hPa | 0V | 00:00:00 | 00:00:00 | 00:00:00 | |
| LZ4TU-5 | 2026-09-03 23:47:06 | 45.91015 | 20.29984 | 173° | 197km/h | 10555m | 6.7m/s | 0°C | 0% | 0hPa | 0V | 00:00:00 | 00:00:00 | 00:00:00 | |
| LZ4TU-5 | 2026-09-03 23:45:23 | 45.96015 | 20.29077 | 169° | 183km/h | 10004m | 6.8m/s | 0°C | 0% | 0hPa | 0V | 00:00:00 | 00:00:00 | 00:00:00 | |
| LZ4TU-5 | 2026-09-03 23:45:20 | 45.96195 | 20.29047 | 180° | 179km/h | 9981m | 6.4m/s | 0°C | 0% | 0hPa | 0V | 00:00:00 | 00:00:00 | 00:00:00 | |
| GYPAP8-17 | 2026-09-03 23:41:16 | 46.05844 | 20.26625 | 163° | 144km/h | 8630m | 3.9m/s | -34.9°C | 0% | 0hPa | 0V | 00:00:00 | 00:00:00 | 00:00:00 | |
| GYPAP8-17 | 2026-09-03 23:36:10 | 46.13101 | 20.22051 | 140° | 95km/h | 6868m | 6.4m/s | 0°C | 0% | 0hPa | 0V | 00:00:00 | 00:00:00 | 00:00:00 |